createdAt,value
2023-02-09T00:01:18.953Z,-2.50
2023-02-09T00:03:46.050Z,-2.40
2023-02-09T00:06:15.691Z,-2.40
2023-02-09T00:11:15.255Z,-2.50
2023-02-09T00:13:43.905Z,-2.50
2023-02-09T00:16:11.093Z,-2.50
2023-02-09T00:21:10.842Z,-2.50
2023-02-09T00:23:40.437Z,-2.60
2023-02-09T00:26:10.657Z,-2.70
2023-02-09T00:28:38.001Z,-2.70
2023-02-09T00:31:09.964Z,-2.80
2023-02-09T00:33:37.705Z,-2.90
2023-02-09T00:36:06.178Z,-3.00
2023-02-09T00:41:00.104Z,-3.10
2023-02-09T00:43:26.886Z,-3.10
2023-02-09T00:45:53.663Z,-3.20
2023-02-09T00:50:47.684Z,-3.10
2023-02-09T00:55:41.560Z,-3.20
2023-02-09T00:58:08.327Z,-3.10
2023-02-09T01:03:02.216Z,-3.10
2023-02-09T01:10:23.670Z,-2.90
2023-02-09T01:12:50.675Z,-2.90
2023-02-09T01:17:44.725Z,-2.70
2023-02-09T01:20:13.977Z,-2.50
2023-02-09T01:25:08.378Z,-2.20
2023-02-09T01:27:36.636Z,-2.20
2023-02-09T01:32:30.551Z,-2.00
2023-02-09T01:34:57.313Z,-2.00
2023-02-09T01:39:51.317Z,-2.00
2023-02-09T01:42:20.437Z,-2.10
2023-02-09T01:44:47.096Z,-2.20
2023-02-09T01:47:15.376Z,-2.30
2023-02-09T01:49:46.231Z,-2.60
2023-02-09T01:52:18.117Z,-2.70
2023-02-09T01:55:01.414Z,-2.80
2023-02-09T02:00:07.388Z,-2.90
2023-02-09T02:02:34.616Z,-3.00
2023-02-09T02:05:01.869Z,-3.10
2023-02-09T02:07:50.130Z,-3.20
2023-02-09T02:12:44.284Z,-3.20
2023-02-09T02:18:04.881Z,-3.20
2023-02-09T02:20:54.878Z,-3.20
2023-02-09T02:23:32.833Z,-3.30
2023-02-09T02:26:31.466Z,-3.30
2023-02-09T02:29:13.405Z,-3.40
2023-02-09T02:31:49.437Z,-3.50
2023-02-09T02:34:39.796Z,-3.50
2023-02-09T02:37:32.093Z,-3.40
2023-02-09T02:40:15.246Z,-3.40
2023-02-09T02:42:48.710Z,-3.30
2023-02-09T02:45:33.529Z,-3.30
2023-02-09T02:51:01.614Z,-3.40
2023-02-09T02:53:34.299Z,-3.40
2023-02-09T02:56:08.693Z,-3.50
2023-02-09T02:58:38.796Z,-3.60
2023-02-09T03:01:10.181Z,-3.80
2023-02-09T03:03:39.123Z,-3.90
2023-02-09T03:06:07.210Z,-3.90
2023-02-09T03:08:55.425Z,-3.80
2023-02-09T03:11:27.291Z,-3.70
2023-02-09T03:14:12.366Z,-3.70
2023-02-09T03:20:36.247Z,-3.80
2023-02-09T03:23:07.472Z,-3.80
2023-02-09T03:25:43.699Z,-3.80
2023-02-09T03:28:24.567Z,-3.90
2023-02-09T03:30:52.949Z,-4.10
2023-02-09T03:33:23.026Z,-4.00
2023-02-09T03:35:54.655Z,-4.00
2023-02-09T03:38:21.512Z,-3.90
2023-02-09T03:40:48.300Z,-3.80
2023-02-09T03:43:15.076Z,-3.50
2023-02-09T03:50:36.928Z,-2.70
2023-02-09T03:53:06.525Z,-2.50
2023-02-09T03:55:33.749Z,-2.30
2023-02-09T03:58:00.709Z,-2.20
2023-02-09T04:00:27.528Z,-2.20
2023-02-09T04:02:54.298Z,-2.30
2023-02-09T04:07:49.729Z,-2.60
2023-02-09T04:10:16.572Z,-2.60
2023-02-09T04:15:10.515Z,-2.90
2023-02-09T04:20:04.655Z,-3.30
2023-02-09T04:24:58.464Z,-3.50
2023-02-09T04:37:15.301Z,-2.40
2023-02-09T04:44:36.459Z,-1.90
2023-02-09T04:47:03.396Z,-1.90
2023-02-09T04:49:30.074Z,-1.80
2023-02-09T04:59:40.488Z,-1.50
2023-02-09T05:02:07.712Z,-1.50
2023-02-09T05:07:02.074Z,-1.50
2023-02-09T05:09:28.889Z,-1.60
2023-02-09T05:11:55.730Z,-1.60
2023-02-09T05:21:43.839Z,-1.60
2023-02-09T05:24:10.643Z,-1.60
2023-02-09T05:26:37.362Z,-1.60
2023-02-09T05:29:04.630Z,-1.70
2023-02-09T05:31:31.470Z,-1.70
2023-02-09T05:38:52.482Z,-1.70
2023-02-09T05:44:05.107Z,-1.60
2023-02-09T05:48:58.991Z,-1.60
2023-02-09T05:53:54.040Z,-1.70
2023-02-09T05:56:22.555Z,-1.80
2023-02-09T05:58:49.305Z,-1.90
2023-02-09T06:01:16.132Z,-2.00
2023-02-09T06:03:42.946Z,-2.00
2023-02-09T06:11:06.086Z,-2.20
2023-02-09T06:13:33.381Z,-2.30
2023-02-09T06:16:00.309Z,-2.30
2023-02-09T06:20:54.338Z,-2.20
2023-02-09T06:25:48.567Z,-2.00
2023-02-09T06:30:42.590Z,-1.90
2023-02-09T06:33:09.280Z,-1.80
2023-02-09T06:40:30.224Z,-1.80
2023-02-09T06:42:57.125Z,-1.80
2023-02-09T06:45:24.002Z,-1.80
2023-02-09T06:50:18.740Z,-1.80
2023-02-09T06:52:46.347Z,-1.80
2023-02-09T06:55:13.314Z,-1.90
2023-02-09T06:57:40.569Z,-1.90
2023-02-09T07:00:08.957Z,-1.90
2023-02-09T07:02:35.914Z,-1.90
2023-02-09T07:05:02.699Z,-1.90
2023-02-09T07:14:52.242Z,-1.90
2023-02-09T07:19:46.455Z,-1.90
2023-02-09T07:22:13.210Z,-2.00
2023-02-09T07:24:39.998Z,-1.90
2023-02-09T07:27:07.257Z,-1.90
2023-02-09T07:29:34.466Z,-1.80
2023-02-09T07:34:28.415Z,-1.60
2023-02-09T07:36:55.195Z,-1.40
2023-02-09T07:46:43.694Z,-0.50
2023-02-09T07:49:10.942Z,-0.10
2023-02-09T07:51:38.841Z,0.30
2023-02-09T07:54:07.444Z,0.70
2023-02-09T07:56:34.356Z,1.00
2023-02-09T07:59:01.115Z,1.20
2023-02-09T08:01:27.918Z,1.50
2023-02-09T08:06:40.754Z,2.20
2023-02-09T08:09:10.331Z,2.50
2023-02-09T08:11:50.050Z,2.60
2023-02-09T08:14:30.404Z,2.60
2023-02-09T08:17:24.764Z,2.30
2023-02-09T08:20:02.229Z,2.00
2023-02-09T08:22:32.401Z,2.10
2023-02-09T08:25:01.011Z,2.10
2023-02-09T08:27:28.021Z,2.20
2023-02-09T08:32:21.986Z,1.90
2023-02-09T08:34:48.679Z,1.90
2023-02-09T08:37:15.406Z,1.80
2023-02-09T08:39:42.099Z,1.70
2023-02-09T08:42:08.848Z,1.70
2023-02-09T08:44:35.608Z,1.80
2023-02-09T08:47:02.501Z,1.90
2023-02-09T08:49:29.357Z,1.80
2023-02-09T08:51:56.099Z,1.90
2023-02-09T08:54:22.859Z,1.90
2023-02-09T08:59:19.717Z,2.00
2023-02-09T09:01:46.722Z,2.10
2023-02-09T09:04:13.577Z,2.10
2023-02-09T09:06:40.356Z,2.30
2023-02-09T09:09:07.045Z,2.70
2023-02-09T09:11:34.039Z,3.10
2023-02-09T09:14:00.722Z,3.40
2023-02-09T09:16:27.539Z,3.40
2023-02-09T09:18:54.293Z,3.10
2023-02-09T09:21:21.087Z,3.10
2023-02-09T09:23:48.008Z,3.10
2023-02-09T09:26:15.505Z,3.20
2023-02-09T09:28:42.604Z,3.20
2023-02-09T09:31:15.041Z,3.40
2023-02-09T09:33:42.320Z,3.60
2023-02-09T09:36:09.467Z,3.30
2023-02-09T09:38:37.908Z,3.10
2023-02-09T09:41:06.949Z,3.20
2023-02-09T09:43:37.328Z,3.20
2023-02-09T09:46:06.786Z,3.60
2023-02-09T09:48:43.912Z,4.00
2023-02-09T09:51:28.038Z,3.90
2023-02-09T09:53:57.540Z,3.70
2023-02-09T09:56:27.074Z,3.50
2023-02-09T09:58:54.064Z,3.90
2023-02-09T10:01:21.596Z,3.90
2023-02-09T10:03:48.458Z,3.70
2023-02-09T10:06:20.130Z,3.60
2023-02-09T10:08:59.519Z,3.80
2023-02-09T10:11:48.561Z,3.80
2023-02-09T10:14:16.043Z,4.10
2023-02-09T10:16:44.399Z,4.00
2023-02-09T10:19:26.018Z,4.10
2023-02-09T10:21:54.194Z,4.10
2023-02-09T10:24:24.841Z,3.90
2023-02-09T10:27:02.041Z,3.60
2023-02-09T10:29:28.732Z,3.70
2023-02-09T10:32:01.300Z,3.80
2023-02-09T10:34:50.218Z,3.70
2023-02-09T10:37:24.906Z,3.70
2023-02-09T10:40:26.815Z,3.70
2023-02-09T10:42:59.925Z,3.40
2023-02-09T10:45:39.520Z,3.60
2023-02-09T10:48:12.387Z,3.90
2023-02-09T10:50:52.595Z,3.90
2023-02-09T10:53:29.972Z,4.00
2023-02-09T10:56:16.754Z,4.00
2023-02-09T10:58:58.537Z,3.90
2023-02-09T11:01:28.848Z,4.20
2023-02-09T11:04:04.844Z,4.40
2023-02-09T11:06:51.834Z,4.60
2023-02-09T11:09:28.719Z,4.90
2023-02-09T11:14:23.355Z,4.90
2023-02-09T11:17:08.693Z,5.20
2023-02-09T11:19:54.221Z,5.30
2023-02-09T11:22:46.492Z,5.70
2023-02-09T11:25:38.244Z,5.80
2023-02-09T11:28:21.454Z,5.50
2023-02-09T11:31:32.170Z,5.30
2023-02-09T11:34:16.820Z,5.30
2023-02-09T11:37:05.897Z,5.40
2023-02-09T11:39:57.110Z,5.30
2023-02-09T11:42:44.443Z,5.80
2023-02-09T11:45:14.195Z,5.80
2023-02-09T11:48:10.965Z,5.80
2023-02-09T11:50:44.338Z,5.80
2023-02-09T11:53:38.763Z,6.10
2023-02-09T11:56:14.438Z,6.20
2023-02-09T11:58:53.304Z,6.20
2023-02-09T12:01:42.274Z,6.00
2023-02-09T12:04:24.027Z,5.60
2023-02-09T12:06:58.676Z,5.20
2023-02-09T12:09:47.212Z,5.40
2023-02-09T12:12:32.821Z,5.60
2023-02-09T12:15:29.782Z,6.00
2023-02-09T12:17:56.443Z,6.10
2023-02-09T12:20:26.256Z,5.80
2023-02-09T12:23:01.378Z,5.90
2023-02-09T12:25:46.842Z,5.90
2023-02-09T12:28:16.932Z,5.80
2023-02-09T12:30:43.914Z,5.90
2023-02-09T12:33:18.203Z,5.80
2023-02-09T12:36:01.474Z,5.70
2023-02-09T12:38:49.494Z,5.80
2023-02-09T12:41:22.782Z,5.70
2023-02-09T12:43:50.708Z,5.40
2023-02-09T12:46:52.841Z,5.20
2023-02-09T12:49:21.741Z,5.40
2023-02-09T12:51:54.308Z,5.50
2023-02-09T12:54:48.123Z,5.50
2023-02-09T12:57:20.621Z,5.40
2023-02-09T12:59:50.724Z,5.50
2023-02-09T13:02:49.607Z,5.30
2023-02-09T13:05:16.331Z,5.30
2023-02-09T13:08:18.610Z,5.30
2023-02-09T13:10:51.322Z,5.40
2023-02-09T13:13:29.790Z,5.50
2023-02-09T13:16:03.347Z,5.50
2023-02-09T13:18:44.839Z,5.30
2023-02-09T13:21:48.521Z,5.40
2023-02-09T13:24:18.487Z,5.30
2023-02-09T13:26:59.211Z,5.20
2023-02-09T13:29:31.522Z,5.10
2023-02-09T13:32:30.896Z,5.00
2023-02-09T13:35:09.232Z,5.10
2023-02-09T13:37:52.302Z,5.20
2023-02-09T13:40:23.926Z,5.20
2023-02-09T13:43:01.651Z,4.90
2023-02-09T13:45:28.666Z,4.80
2023-02-09T13:47:57.106Z,4.80
2023-02-09T13:50:26.066Z,4.90
2023-02-09T13:52:52.997Z,4.90
2023-02-09T13:55:27.351Z,5.00
2023-02-09T13:58:04.256Z,4.90
2023-02-09T14:00:39.999Z,4.80
2023-02-09T14:03:16.791Z,4.70
2023-02-09T14:06:00.575Z,4.80
2023-02-09T14:08:29.073Z,4.70
2023-02-09T14:11:01.434Z,4.70
2023-02-09T14:13:35.262Z,4.70
2023-02-09T14:16:09.700Z,4.60
2023-02-09T14:18:51.728Z,4.60
2023-02-09T14:21:23.261Z,4.50
2023-02-09T14:24:23.679Z,4.50
2023-02-09T14:27:33.059Z,4.50
2023-02-09T14:30:01.265Z,4.50
2023-02-09T14:32:38.060Z,4.40
2023-02-09T14:35:16.961Z,4.40
2023-02-09T14:37:44.621Z,4.50
2023-02-09T14:40:11.734Z,4.40
2023-02-09T14:42:59.707Z,4.40
2023-02-09T14:45:51.794Z,4.40
2023-02-09T14:48:26.755Z,4.40
2023-02-09T14:50:59.212Z,4.40
2023-02-09T14:53:29.993Z,4.40
2023-02-09T14:55:57.377Z,4.30
2023-02-09T14:58:30.493Z,4.30
2023-02-09T15:01:00.223Z,4.40
2023-02-09T15:03:27.071Z,4.40
2023-02-09T15:06:03.284Z,4.40
2023-02-09T15:08:33.383Z,4.40
2023-02-09T15:11:03.258Z,4.40
2023-02-09T15:13:32.499Z,4.30
2023-02-09T15:15:59.310Z,4.20
2023-02-09T15:18:27.067Z,4.20
2023-02-09T15:20:53.969Z,4.20
2023-02-09T15:23:20.730Z,4.20
2023-02-09T15:25:48.036Z,4.20
2023-02-09T15:28:28.440Z,4.20
2023-02-09T15:30:56.419Z,4.20
2023-02-09T15:33:23.418Z,4.20
2023-02-09T15:35:50.271Z,4.10
2023-02-09T15:38:18.406Z,4.00
2023-02-09T15:41:05.596Z,4.00
2023-02-09T15:43:51.213Z,4.00
2023-02-09T15:46:36.814Z,3.90
2023-02-09T15:49:05.592Z,3.80
2023-02-09T15:51:36.746Z,3.80
2023-02-09T15:54:12.115Z,3.70
2023-02-09T15:56:39.186Z,3.60
2023-02-09T15:59:06.478Z,3.60
2023-02-09T16:01:33.919Z,3.60
2023-02-09T16:04:13.365Z,3.50
2023-02-09T16:06:43.916Z,3.50
2023-02-09T16:09:18.844Z,3.50
2023-02-09T16:11:45.695Z,3.50
2023-02-09T16:14:21.283Z,3.40
2023-02-09T16:16:49.041Z,3.40
2023-02-09T16:19:16.873Z,3.40
2023-02-09T16:21:50.448Z,3.40
2023-02-09T16:24:32.993Z,3.40
2023-02-09T16:27:01.917Z,3.30
2023-02-09T16:29:29.105Z,3.30
2023-02-09T16:31:55.956Z,3.20
2023-02-09T16:34:22.723Z,3.20
2023-02-09T16:36:49.935Z,3.10
2023-02-09T16:39:19.470Z,3.00
2023-02-09T16:41:47.344Z,3.00
2023-02-09T16:44:23.308Z,2.90
2023-02-09T16:46:56.357Z,2.80
2023-02-09T16:49:41.531Z,2.60
2023-02-09T16:52:21.674Z,2.50
2023-02-09T16:54:52.225Z,2.40
2023-02-09T16:57:23.107Z,2.40
2023-02-09T16:59:50.549Z,2.40
2023-02-09T17:03:07.467Z,2.40
2023-02-09T17:05:37.117Z,2.40
2023-02-09T17:08:17.256Z,2.40
2023-02-09T17:10:44.555Z,2.40
2023-02-09T17:13:11.783Z,2.40
2023-02-09T17:15:45.228Z,2.40
2023-02-09T17:18:20.214Z,2.30
2023-02-09T17:20:52.796Z,2.30
2023-02-09T17:23:23.448Z,2.40
2023-02-09T17:25:51.604Z,2.40
2023-02-09T17:28:19.202Z,2.40
2023-02-09T17:30:47.740Z,2.40
2023-02-09T17:33:27.366Z,2.40
2023-02-09T17:36:24.754Z,2.30
2023-02-09T17:38:44.132Z,2.30
2023-02-09T17:41:18.260Z,2.30
2023-02-09T17:46:14.618Z,2.30
2023-02-09T17:48:41.718Z,2.30
2023-02-09T17:51:26.360Z,2.30
2023-02-09T17:53:53.310Z,2.30
2023-02-09T17:58:47.934Z,2.30
2023-02-09T18:01:29.894Z,2.30
2023-02-09T18:04:00.902Z,2.30
2023-02-09T18:06:39.850Z,2.40
2023-02-09T18:09:09.085Z,2.40
2023-02-09T18:11:45.028Z,2.50
2023-02-09T18:14:16.621Z,2.50
2023-02-09T18:16:43.667Z,2.50
2023-02-09T18:19:11.278Z,2.40
2023-02-09T18:21:39.252Z,2.40
2023-02-09T18:24:06.404Z,2.50
2023-02-09T18:31:27.055Z,2.50
2023-02-09T18:33:54.168Z,2.50
2023-02-09T18:36:20.975Z,2.60
2023-02-09T18:38:49.172Z,2.60
2023-02-09T18:41:15.926Z,2.60
2023-02-09T18:43:42.707Z,2.60
2023-02-09T18:46:13.762Z,2.60
2023-02-09T18:48:40.499Z,2.70
2023-02-09T18:51:08.525Z,2.70
2023-02-09T18:53:35.762Z,2.70
2023-02-09T18:56:02.508Z,2.80
2023-02-09T18:58:29.314Z,2.80
2023-02-09T19:00:56.185Z,2.80
2023-02-09T19:03:23.255Z,2.90
2023-02-09T19:05:50.093Z,2.90
2023-02-09T19:08:16.822Z,2.90
2023-02-09T19:10:45.125Z,3.00
2023-02-09T19:13:11.958Z,3.00
2023-02-09T19:15:39.909Z,3.00
2023-02-09T19:18:06.709Z,3.00
2023-02-09T19:20:34.262Z,3.10
2023-02-09T19:23:02.492Z,3.10
2023-02-09T19:25:30.179Z,3.10
2023-02-09T19:27:57.307Z,3.20
2023-02-09T19:30:26.370Z,3.20
2023-02-09T19:32:55.000Z,3.20
2023-02-09T19:35:22.898Z,3.20
2023-02-09T19:37:53.810Z,3.20
2023-02-09T19:40:27.490Z,3.20
2023-02-09T19:42:55.559Z,3.20
2023-02-09T19:45:23.085Z,3.20
2023-02-09T19:47:50.019Z,3.20
2023-02-09T19:50:17.494Z,3.20
2023-02-09T19:55:15.284Z,3.10
2023-02-09T19:57:42.777Z,3.10
2023-02-09T20:00:14.705Z,3.10
2023-02-09T20:02:41.593Z,3.00
2023-02-09T20:05:08.619Z,3.00
2023-02-09T20:07:35.739Z,2.90
2023-02-09T20:10:02.479Z,2.80
2023-02-09T20:12:29.377Z,2.80
2023-02-09T20:14:56.147Z,2.80
2023-02-09T20:17:23.148Z,2.80
2023-02-09T20:22:17.391Z,2.70
2023-02-09T20:24:47.070Z,2.70
2023-02-09T20:27:13.879Z,2.70
2023-02-09T20:29:40.755Z,2.70
2023-02-09T20:32:07.535Z,2.70
2023-02-09T20:34:34.333Z,2.60
2023-02-09T20:37:01.202Z,2.60
2023-02-09T20:39:28.110Z,2.50
2023-02-09T20:42:16.332Z,2.60
2023-02-09T20:45:02.578Z,2.50
2023-02-09T20:47:32.104Z,2.50
2023-02-09T20:50:00.378Z,2.50
2023-02-09T20:52:29.243Z,2.50
2023-02-09T20:54:56.530Z,2.50
2023-02-09T20:57:29.336Z,2.50
2023-02-09T20:59:57.584Z,2.50
2023-02-09T21:02:25.479Z,2.50
2023-02-09T21:04:56.025Z,2.50
2023-02-09T21:07:23.323Z,2.50
2023-02-09T21:09:50.090Z,2.50
2023-02-09T21:12:16.847Z,2.50
2023-02-09T21:14:46.411Z,2.50
2023-02-09T21:17:13.950Z,2.50
2023-02-09T21:19:41.106Z,2.60
2023-02-09T21:22:07.967Z,2.60
2023-02-09T21:24:35.043Z,2.60
2023-02-09T21:27:01.831Z,2.60
2023-02-09T21:29:29.311Z,2.70
2023-02-09T21:32:00.617Z,2.70
2023-02-09T21:34:27.356Z,2.60
2023-02-09T21:36:54.149Z,2.60
2023-02-09T21:42:06.567Z,2.70
2023-02-09T21:44:36.910Z,2.70
2023-02-09T21:47:03.882Z,2.60
2023-02-09T21:49:31.859Z,2.60
2023-02-09T21:51:59.394Z,2.70
2023-02-09T21:54:28.191Z,2.70
2023-02-09T21:56:55.729Z,2.70
2023-02-09T21:59:22.499Z,2.70
2023-02-09T22:01:49.340Z,2.70
2023-02-09T22:04:16.163Z,2.70
2023-02-09T22:06:42.946Z,2.70
2023-02-09T22:09:09.731Z,2.70
2023-02-09T22:11:36.491Z,2.70
2023-02-09T22:14:03.531Z,2.70
2023-02-09T22:16:31.066Z,2.70
2023-02-09T22:18:59.327Z,2.70
2023-02-09T22:21:26.384Z,2.70
2023-02-09T22:23:54.095Z,2.70
2023-02-09T22:26:21.255Z,2.70
2023-02-09T22:28:48.652Z,2.70
2023-02-09T22:31:17.822Z,2.70
2023-02-09T22:33:45.103Z,2.70
2023-02-09T22:36:14.973Z,2.70
2023-02-09T22:38:42.284Z,2.80
2023-02-09T22:41:21.432Z,2.70
2023-02-09T22:43:54.001Z,2.80
2023-02-09T22:46:26.527Z,2.70
2023-02-09T22:48:58.448Z,2.70
2023-02-09T22:51:28.370Z,2.70
2023-02-09T22:53:56.194Z,2.70
2023-02-09T22:56:23.222Z,2.70
2023-02-09T22:58:52.078Z,2.80
2023-02-09T23:01:18.860Z,2.80
2023-02-09T23:03:45.647Z,2.80
2023-02-09T23:06:15.970Z,2.80
2023-02-09T23:08:43.264Z,2.80
2023-02-09T23:11:12.712Z,2.70
2023-02-09T23:13:40.097Z,2.80
2023-02-09T23:16:17.185Z,2.80
2023-02-09T23:18:49.978Z,2.80
2023-02-09T23:21:18.251Z,2.80
2023-02-09T23:23:45.797Z,2.80
2023-02-09T23:26:13.475Z,2.80
2023-02-09T23:28:40.348Z,2.80
2023-02-09T23:31:09.368Z,2.70
2023-02-09T23:33:37.510Z,2.70
2023-02-09T23:36:13.559Z,2.70
2023-02-09T23:38:40.529Z,2.80
2023-02-09T23:41:09.622Z,2.80
2023-02-09T23:46:20.676Z,2.80
2023-02-09T23:48:48.208Z,2.80
2023-02-09T23:51:20.365Z,2.80
2023-02-09T23:53:48.088Z,2.80
2023-02-09T23:56:17.416Z,2.70
2023-02-09T23:58:46.601Z,2.80
